sensor_id;sensor_type;location;lat;lon;timestamp;pressure;altitude;pressure_sealevel;temperature;humidity
19108;BME280;9686;48.832;9.126;2023-01-29T00:01:54;99256.69;;;4.45;83.35
19108;BME280;9686;48.832;9.126;2023-01-29T00:04:20;99257.53;;;4.44;81.58
19108;BME280;9686;48.832;9.126;2023-01-29T00:06:46;99258.34;;;4.43;77.60
19108;BME280;9686;48.832;9.126;2023-01-29T00:09:11;99265.63;;;4.55;77.50
19108;BME280;9686;48.832;9.126;2023-01-29T00:11:38;99257.88;;;4.55;76.09
19108;BME280;9686;48.832;9.126;2023-01-29T00:14:03;99254.06;;;4.44;75.95
19108;BME280;9686;48.832;9.126;2023-01-29T00:16:29;99265.13;;;4.65;76.17
19108;BME280;9686;48.832;9.126;2023-01-29T00:18:54;99267.13;;;4.24;79.45
19108;BME280;9686;48.832;9.126;2023-01-29T00:21:21;99252.94;;;4.37;82.49
19108;BME280;9686;48.832;9.126;2023-01-29T00:23:47;99255.00;;;4.46;81.22
19108;BME280;9686;48.832;9.126;2023-01-29T00:26:13;99261.16;;;4.49;81.59
19108;BME280;9686;48.832;9.126;2023-01-29T00:28:38;99264.56;;;4.48;79.40
19108;BME280;9686;48.832;9.126;2023-01-29T00:31:08;99261.91;;;4.47;77.79
19108;BME280;9686;48.832;9.126;2023-01-29T00:33:33;99262.03;;;4.50;76.63
19108;BME280;9686;48.832;9.126;2023-01-29T00:36:04;99261.69;;;4.41;77.81
19108;BME280;9686;48.832;9.126;2023-01-29T00:38:30;99253.09;;;4.42;80.32
19108;BME280;9686;48.832;9.126;2023-01-29T00:40:55;99250.38;;;4.37;80.22
19108;BME280;9686;48.832;9.126;2023-01-29T00:43:39;99251.69;;;4.50;79.66
19108;BME280;9686;48.832;9.126;2023-01-29T00:46:42;99254.94;;;4.44;77.62
19108;BME280;9686;48.832;9.126;2023-01-29T00:49:08;99254.16;;;4.47;76.13
19108;BME280;9686;48.832;9.126;2023-01-29T00:51:34;99256.75;;;4.47;74.52
19108;BME280;9686;48.832;9.126;2023-01-29T00:54:00;99261.16;;;4.49;75.96
19108;BME280;9686;48.832;9.126;2023-01-29T00:56:27;99256.41;;;4.38;74.89
19108;BME280;9686;48.832;9.126;2023-01-29T00:58:53;99256.34;;;4.60;72.85
19108;BME280;9686;48.832;9.126;2023-01-29T01:01:18;99253.41;;;4.49;75.91
19108;BME280;9686;48.832;9.126;2023-01-29T01:04:04;99257.47;;;4.68;75.86
19108;BME280;9686;48.832;9.126;2023-01-29T01:06:30;99255.25;;;4.53;72.80
19108;BME280;9686;48.832;9.126;2023-01-29T01:08:55;99255.25;;;4.53;73.71
19108;BME280;9686;48.832;9.126;2023-01-29T01:11:46;99249.25;;;4.54;74.03
19108;BME280;9686;48.832;9.126;2023-01-29T01:14:12;99256.19;;;4.55;72.09
19108;BME280;9686;48.832;9.126;2023-01-29T01:16:37;99248.38;;;4.54;74.33
19108;BME280;9686;48.832;9.126;2023-01-29T01:19:03;99252.84;;;4.34;74.63
19108;BME280;9686;48.832;9.126;2023-01-29T01:21:29;99264.16;;;4.38;78.14
19108;BME280;9686;48.832;9.126;2023-01-29T01:23:54;99251.81;;;4.29;77.18
19108;BME280;9686;48.832;9.126;2023-01-29T01:26:19;99246.19;;;4.41;75.90
19108;BME280;9686;48.832;9.126;2023-01-29T01:28:45;99248.97;;;4.45;79.85
19108;BME280;9686;48.832;9.126;2023-01-29T01:31:11;99250.06;;;4.28;77.94
19108;BME280;9686;48.832;9.126;2023-01-29T01:33:37;99250.97;;;4.06;78.25
19108;BME280;9686;48.832;9.126;2023-01-29T01:36:04;99256.47;;;4.15;76.68
19108;BME280;9686;48.832;9.126;2023-01-29T01:38:35;99257.06;;;4.32;75.88
19108;BME280;9686;48.832;9.126;2023-01-29T01:41:01;99260.16;;;3.98;76.34
19108;BME280;9686;48.832;9.126;2023-01-29T01:43:26;99257.53;;;4.20;76.01
19108;BME280;9686;48.832;9.126;2023-01-29T01:45:51;99252.19;;;4.16;74.94
19108;BME280;9686;48.832;9.126;2023-01-29T01:48:23;99254.50;;;4.08;76.95
19108;BME280;9686;48.832;9.126;2023-01-29T01:50:59;99240.59;;;4.05;76.17
19108;BME280;9686;48.832;9.126;2023-01-29T01:53:30;99242.16;;;4.23;76.27
19108;BME280;9686;48.832;9.126;2023-01-29T01:56:01;99246.03;;;4.36;74.44
19108;BME280;9686;48.832;9.126;2023-01-29T01:58:36;99245.06;;;4.09;76.08
19108;BME280;9686;48.832;9.126;2023-01-29T02:01:06;99238.91;;;4.05;75.56
19108;BME280;9686;48.832;9.126;2023-01-29T02:03:34;99250.88;;;4.03;75.21
19108;BME280;9686;48.832;9.126;2023-01-29T02:06:19;99242.41;;;4.07;77.37
19108;BME280;9686;48.832;9.126;2023-01-29T02:09:06;99241.13;;;4.18;77.86
19108;BME280;9686;48.832;9.126;2023-01-29T02:11:51;99246.81;;;4.10;76.80
19108;BME280;9686;48.832;9.126;2023-01-29T02:14:17;99255.28;;;3.83;75.40
19108;BME280;9686;48.832;9.126;2023-01-29T02:16:43;99261.25;;;4.05;76.18
19108;BME280;9686;48.832;9.126;2023-01-29T02:19:35;99257.53;;;3.96;77.43
19108;BME280;9686;48.832;9.126;2023-01-29T02:30:20;99259.66;;;4.08;78.08
19108;BME280;9686;48.832;9.126;2023-01-29T02:33:00;99262.06;;;4.03;78.36
19108;BME280;9686;48.832;9.126;2023-01-29T02:35:44;99259.72;;;4.10;77.60
19108;BME280;9686;48.832;9.126;2023-01-29T02:38:29;99251.97;;;4.10;76.68
19108;BME280;9686;48.832;9.126;2023-01-29T02:43:46;99251.81;;;4.05;74.17
19108;BME280;9686;48.832;9.126;2023-01-29T02:48:46;99243.06;;;3.78;75.73
19108;BME280;9686;48.832;9.126;2023-01-29T02:51:19;99257.03;;;3.84;78.41
19108;BME280;9686;48.832;9.126;2023-01-29T02:54:21;99249.56;;;3.90;79.15
19108;BME280;9686;48.832;9.126;2023-01-29T02:57:21;99248.97;;;3.97;80.78
19108;BME280;9686;48.832;9.126;2023-01-29T02:59:53;99244.28;;;4.11;78.22
19108;BME280;9686;48.832;9.126;2023-01-29T03:02:28;99236.22;;;4.02;80.48
19108;BME280;9686;48.832;9.126;2023-01-29T03:04:59;99246.56;;;4.26;78.12
19108;BME280;9686;48.832;9.126;2023-01-29T03:07:36;99247.75;;;4.12;74.47
19108;BME280;9686;48.832;9.126;2023-01-29T03:10:51;99249.38;;;4.10;75.47
19108;BME280;9686;48.832;9.126;2023-01-29T03:16:53;99250.31;;;4.12;74.80
19108;BME280;9686;48.832;9.126;2023-01-29T03:19:38;99245.19;;;3.89;74.44
19108;BME280;9686;48.832;9.126;2023-01-29T03:22:06;99248.78;;;3.93;75.67
19108;BME280;9686;48.832;9.126;2023-01-29T03:24:46;99250.06;;;4.04;73.89
19108;BME280;9686;48.832;9.126;2023-01-29T03:27:35;99249.31;;;3.84;74.79
19108;BME280;9686;48.832;9.126;2023-01-29T03:30:24;99250.00;;;4.02;75.03
19108;BME280;9686;48.832;9.126;2023-01-29T03:33:10;99246.50;;;4.00;74.69
19108;BME280;9686;48.832;9.126;2023-01-29T03:35:43;99248.19;;;4.00;73.44
19108;BME280;9686;48.832;9.126;2023-01-29T03:38:12;99240.53;;;3.79;79.00
19108;BME280;9686;48.832;9.126;2023-01-29T03:40:50;99244.53;;;3.71;80.15
19108;BME280;9686;48.832;9.126;2023-01-29T03:46:34;99246.50;;;3.78;75.74
19108;BME280;9686;48.832;9.126;2023-01-29T03:49:14;99243.63;;;3.93;75.06
19108;BME280;9686;48.832;9.126;2023-01-29T03:57:30;99247.09;;;3.93;73.39
19108;BME280;9686;48.832;9.126;2023-01-29T04:00:07;99245.91;;;3.85;73.25
19108;BME280;9686;48.832;9.126;2023-01-29T04:03:02;99246.50;;;3.78;73.29
19108;BME280;9686;48.832;9.126;2023-01-29T04:05:36;99244.00;;;3.57;74.73
19108;BME280;9686;48.832;9.126;2023-01-29T04:08:09;99246.56;;;3.57;75.12
19108;BME280;9686;48.832;9.126;2023-01-29T04:10:38;99250.19;;;3.62;76.87
19108;BME280;9686;48.832;9.126;2023-01-29T04:13:08;99254.03;;;3.72;75.61
19108;BME280;9686;48.832;9.126;2023-01-29T04:15:39;99249.53;;;3.66;78.68
19108;BME280;9686;48.832;9.126;2023-01-29T04:18:06;99242.72;;;3.68;77.71
19108;BME280;9686;48.832;9.126;2023-01-29T04:20:33;99244.59;;;3.72;77.04
19108;BME280;9686;48.832;9.126;2023-01-29T04:22:59;99249.97;;;3.79;78.94
19108;BME280;9686;48.832;9.126;2023-01-29T04:25:28;99249.56;;;3.90;76.19
19108;BME280;9686;48.832;9.126;2023-01-29T04:28:27;99256.13;;;3.82;76.30
19108;BME280;9686;48.832;9.126;2023-01-29T04:31:05;99254.13;;;3.75;80.25
19108;BME280;9686;48.832;9.126;2023-01-29T04:38:45;99255.19;;;3.80;75.23
19108;BME280;9686;48.832;9.126;2023-01-29T04:41:21;99249.34;;;4.08;73.02
19108;BME280;9686;48.832;9.126;2023-01-29T04:44:03;99250.97;;;4.06;74.51
19108;BME280;9686;48.832;9.126;2023-01-29T04:46:48;99248.84;;;3.94;73.67
19108;BME280;9686;48.832;9.126;2023-01-29T04:49:30;99250.09;;;3.82;75.85
19108;BME280;9686;48.832;9.126;2023-01-29T04:52:03;99247.44;;;3.80;75.06
19108;BME280;9686;48.832;9.126;2023-01-29T04:57:27;99242.53;;;3.64;76.23
19108;BME280;9686;48.832;9.126;2023-01-29T05:00:00;99242.84;;;3.49;74.91
19108;BME280;9686;48.832;9.126;2023-01-29T05:02:28;99248.97;;;3.75;74.44
19108;BME280;9686;48.832;9.126;2023-01-29T05:04:57;99251.84;;;3.60;77.49
19108;BME280;9686;48.832;9.126;2023-01-29T05:07:23;99251.34;;;3.69;76.47
19108;BME280;9686;48.832;9.126;2023-01-29T05:09:50;99252.16;;;3.46;78.86
19108;BME280;9686;48.832;9.126;2023-01-29T05:12:16;99245.34;;;3.70;76.97
19108;BME280;9686;48.832;9.126;2023-01-29T05:14:44;99243.06;;;3.55;77.04
19108;BME280;9686;48.832;9.126;2023-01-29T05:17:15;99245.09;;;3.64;75.74
19108;BME280;9686;48.832;9.126;2023-01-29T05:19:42;99240.44;;;3.54;76.58
19108;BME280;9686;48.832;9.126;2023-01-29T05:22:09;99242.47;;;3.62;76.68
19108;BME280;9686;48.832;9.126;2023-01-29T05:24:37;99252.59;;;3.58;81.34
19108;BME280;9686;48.832;9.126;2023-01-29T05:27:02;99254.41;;;3.60;80.84
19108;BME280;9686;48.832;9.126;2023-01-29T05:29:46;99259.88;;;3.46;77.91
19108;BME280;9686;48.832;9.126;2023-01-29T05:32:12;99261.81;;;3.51;76.95
19108;BME280;9686;48.832;9.126;2023-01-29T05:34:38;99263.09;;;3.62;79.23
19108;BME280;9686;48.832;9.126;2023-01-29T05:37:03;99256.31;;;3.42;79.64
19108;BME280;9686;48.832;9.126;2023-01-29T05:39:29;99254.31;;;3.57;80.59
19108;BME280;9686;48.832;9.126;2023-01-29T05:41:54;99254.38;;;3.59;79.19
19108;BME280;9686;48.832;9.126;2023-01-29T05:44:19;99249.25;;;3.38;80.27
19108;BME280;9686;48.832;9.126;2023-01-29T05:46:45;99237.28;;;3.38;82.16
19108;BME280;9686;48.832;9.126;2023-01-29T05:49:10;99221.38;;;3.50;79.03
19108;BME280;9686;48.832;9.126;2023-01-29T05:51:36;99215.41;;;3.74;80.29
19108;BME280;9686;48.832;9.126;2023-01-29T05:54:01;99199.47;;;3.61;80.01
19108;BME280;9686;48.832;9.126;2023-01-29T05:56:27;99200.53;;;3.66;78.29
19108;BME280;9686;48.832;9.126;2023-01-29T05:58:52;99199.13;;;3.52;75.19
19108;BME280;9686;48.832;9.126;2023-01-29T06:01:19;99212.50;;;3.64;73.28
19108;BME280;9686;48.832;9.126;2023-01-29T06:03:46;99230.00;;;3.51;74.24
19108;BME280;9686;48.832;9.126;2023-01-29T06:06:11;99225.88;;;3.78;76.08
19108;BME280;9686;48.832;9.126;2023-01-29T06:08:37;99222.38;;;3.76;73.60
19108;BME280;9686;48.832;9.126;2023-01-29T06:11:03;99229.88;;;3.70;72.49
19108;BME280;9686;48.832;9.126;2023-01-29T06:13:28;99223.78;;;3.68;75.22
19108;BME280;9686;48.832;9.126;2023-01-29T06:15:54;99231.22;;;3.60;77.34
19108;BME280;9686;48.832;9.126;2023-01-29T06:18:19;99234.56;;;3.58;77.24
19108;BME280;9686;48.832;9.126;2023-01-29T06:20:45;99234.09;;;3.68;76.59
19108;BME280;9686;48.832;9.126;2023-01-29T06:23:10;99232.41;;;3.68;72.92
19108;BME280;9686;48.832;9.126;2023-01-29T06:25:35;99238.50;;;3.70;72.72
19108;BME280;9686;48.832;9.126;2023-01-29T06:28:00;99239.53;;;3.76;73.14
19108;BME280;9686;48.832;9.126;2023-01-29T06:30:26;99231.91;;;3.79;75.31
19108;BME280;9686;48.832;9.126;2023-01-29T06:32:56;99239.38;;;3.71;74.83
19108;BME280;9686;48.832;9.126;2023-01-29T06:35:23;99242.19;;;3.55;78.30
19108;BME280;9686;48.832;9.126;2023-01-29T06:37:48;99237.50;;;3.67;79.04
19108;BME280;9686;48.832;9.126;2023-01-29T06:40:14;99246.81;;;3.63;81.08
19108;BME280;9686;48.832;9.126;2023-01-29T06:42:39;99238.91;;;3.59;78.31
19108;BME280;9686;48.832;9.126;2023-01-29T06:45:05;99243.28;;;3.61;80.01
19108;BME280;9686;48.832;9.126;2023-01-29T06:47:30;99236.47;;;3.63;78.95
19108;BME280;9686;48.832;9.126;2023-01-29T06:49:55;99233.69;;;3.57;79.41
19108;BME280;9686;48.832;9.126;2023-01-29T06:52:21;99234.88;;;3.65;80.09
19108;BME280;9686;48.832;9.126;2023-01-29T06:54:46;99240.03;;;3.65;79.04
19108;BME280;9686;48.832;9.126;2023-01-29T06:57:11;99250.25;;;3.64;80.03
19108;BME280;9686;48.832;9.126;2023-01-29T06:59:38;99252.66;;;3.82;77.77
19108;BME280;9686;48.832;9.126;2023-01-29T07:02:03;99255.66;;;3.92;74.60
19108;BME280;9686;48.832;9.126;2023-01-29T07:04:29;99254.88;;;3.95;73.38
19108;BME280;9686;48.832;9.126;2023-01-29T07:06:54;99248.75;;;3.91;74.37
19108;BME280;9686;48.832;9.126;2023-01-29T07:09:19;99246.22;;;3.93;75.39
19108;BME280;9686;48.832;9.126;2023-01-29T07:11:44;99244.31;;;3.89;73.92
19108;BME280;9686;48.832;9.126;2023-01-29T07:14:10;99247.59;;;3.85;73.87
19108;BME280;9686;48.832;9.126;2023-01-29T07:16:35;99248.22;;;3.78;74.34
19108;BME280;9686;48.832;9.126;2023-01-29T07:19:00;99248.88;;;3.72;74.74
19108;BME280;9686;48.832;9.126;2023-01-29T07:21:26;99251.22;;;3.66;76.64
19108;BME280;9686;48.832;9.126;2023-01-29T07:23:52;99250.97;;;3.60;78.35
19108;BME280;9686;48.832;9.126;2023-01-29T07:26:17;99253.97;;;3.70;79.07
19108;BME280;9686;48.832;9.126;2023-01-29T07:28:42;99254.63;;;3.65;77.93
19108;BME280;9686;48.832;9.126;2023-01-29T07:31:10;99266.53;;;3.85;75.94
19108;BME280;9686;48.832;9.126;2023-01-29T07:33:36;99267.84;;;3.74;75.45
19108;BME280;9686;48.832;9.126;2023-01-29T07:36:05;99273.19;;;3.79;77.07
19108;BME280;9686;48.832;9.126;2023-01-29T07:38:31;99264.06;;;3.88;76.10
19108;BME280;9686;48.832;9.126;2023-01-29T07:40:56;99269.44;;;3.93;75.05
19108;BME280;9686;48.832;9.126;2023-01-29T07:43:22;99269.78;;;3.80;73.75
19108;BME280;9686;48.832;9.126;2023-01-29T07:45:49;99279.03;;;3.97;74.42
19108;BME280;9686;48.832;9.126;2023-01-29T07:48:16;99274.91;;;4.02;75.25
19108;BME280;9686;48.832;9.126;2023-01-29T07:50:41;99276.56;;;4.00;71.61
19108;BME280;9686;48.832;9.126;2023-01-29T07:53:11;99271.19;;;3.94;72.14
19108;BME280;9686;48.832;9.126;2023-01-29T07:55:37;99280.84;;;3.99;73.99
19108;BME280;9686;48.832;9.126;2023-01-29T07:58:02;99291.16;;;3.99;72.76
19108;BME280;9686;48.832;9.126;2023-01-29T08:00:29;99287.16;;;4.08;73.54
19108;BME280;9686;48.832;9.126;2023-01-29T08:03:03;99286.94;;;4.01;73.65
19108;BME280;9686;48.832;9.126;2023-01-29T08:05:28;99287.06;;;4.05;72.19
19108;BME280;9686;48.832;9.126;2023-01-29T08:07:54;99285.72;;;4.16;72.71
19108;BME280;9686;48.832;9.126;2023-01-29T08:10:19;99280.56;;;4.16;73.16
19108;BME280;9686;48.832;9.126;2023-01-29T08:12:44;99283.16;;;4.16;73.57
19108;BME280;9686;48.832;9.126;2023-01-29T08:15:10;99281.63;;;4.21;71.95
19108;BME280;9686;48.832;9.126;2023-01-29T08:17:35;99290.94;;;3.93;72.70
19108;BME280;9686;48.832;9.126;2023-01-29T08:20:04;99293.09;;;4.05;70.91
19108;BME280;9686;48.832;9.126;2023-01-29T08:22:30;99296.81;;;4.13;70.17
19108;BME280;9686;48.832;9.126;2023-01-29T08:24:55;99298.78;;;4.19;72.91
19108;BME280;9686;48.832;9.126;2023-01-29T08:27:20;99299.41;;;4.13;71.82
19108;BME280;9686;48.832;9.126;2023-01-29T08:29:46;99300.16;;;4.11;75.33
19108;BME280;9686;48.832;9.126;2023-01-29T08:32:12;99303.69;;;4.13;74.59
19108;BME280;9686;48.832;9.126;2023-01-29T08:34:37;99294.81;;;4.28;72.44
19108;BME280;9686;48.832;9.126;2023-01-29T08:37:03;99304.88;;;4.21;72.70
19108;BME280;9686;48.832;9.126;2023-01-29T08:39:28;99306.47;;;4.17;73.19
19108;BME280;9686;48.832;9.126;2023-01-29T08:41:53;99304.97;;;4.24;72.51
19108;BME280;9686;48.832;9.126;2023-01-29T08:44:19;99304.00;;;4.44;73.21
19108;BME280;9686;48.832;9.126;2023-01-29T08:46:44;99310.09;;;4.22;71.50
19108;BME280;9686;48.832;9.126;2023-01-29T08:49:09;99311.13;;;4.27;71.27
19108;BME280;9686;48.832;9.126;2023-01-29T08:51:34;99310.63;;;4.38;73.27
19108;BME280;9686;48.832;9.126;2023-01-29T08:54:00;99305.50;;;4.15;72.36
19108;BME280;9686;48.832;9.126;2023-01-29T08:56:25;99302.25;;;4.43;73.04
19108;BME280;9686;48.832;9.126;2023-01-29T08:58:51;99304.97;;;4.24;72.56
19108;BME280;9686;48.832;9.126;2023-01-29T09:01:16;99309.91;;;4.42;75.16
19108;BME280;9686;48.832;9.126;2023-01-29T09:03:41;99298.69;;;4.41;74.27
19108;BME280;9686;48.832;9.126;2023-01-29T09:06:13;99307.50;;;4.46;74.22
19108;BME280;9686;48.832;9.126;2023-01-29T09:08:38;99306.75;;;4.49;74.20
19108;BME280;9686;48.832;9.126;2023-01-29T09:11:04;99311.78;;;4.70;71.65
19108;BME280;9686;48.832;9.126;2023-01-29T09:13:29;99316.50;;;4.57;72.85
19108;BME280;9686;48.832;9.126;2023-01-29T09:15:59;99316.75;;;4.65;71.88
19108;BME280;9686;48.832;9.126;2023-01-29T09:18:25;99321.75;;;4.84;71.71
19108;BME280;9686;48.832;9.126;2023-01-29T09:20:51;99319.38;;;4.90;68.59
19108;BME280;9686;48.832;9.126;2023-01-29T09:23:17;99323.66;;;4.90;68.45
19108;BME280;9686;48.832;9.126;2023-01-29T09:25:42;99315.91;;;4.90;69.96
19108;BME280;9686;48.832;9.126;2023-01-29T09:28:08;99319.91;;;4.80;71.73
19108;BME280;9686;48.832;9.126;2023-01-29T09:30:33;99333.56;;;5.02;68.58
19108;BME280;9686;48.832;9.126;2023-01-29T09:33:01;99323.41;;;4.58;68.43
19108;BME280;9686;48.832;9.126;2023-01-29T09:35:27;99330.75;;;4.70;67.35
19108;BME280;9686;48.832;9.126;2023-01-29T09:37:52;99324.13;;;4.78;66.88
19108;BME280;9686;48.832;9.126;2023-01-29T09:40:24;99320.88;;;4.84;65.61
19108;BME280;9686;48.832;9.126;2023-01-29T09:43:17;99304.06;;;4.95;66.92
19108;BME280;9686;48.832;9.126;2023-01-29T09:46:00;99302.78;;;5.09;68.37
19108;BME280;9686;48.832;9.126;2023-01-29T09:48:30;99298.66;;;5.14;64.97
19108;BME280;9686;48.832;9.126;2023-01-29T09:51:00;99294.13;;;5.07;66.91
19108;BME280;9686;48.832;9.126;2023-01-29T09:53:38;99287.38;;;5.12;65.59
19108;BME280;9686;48.832;9.126;2023-01-29T09:56:10;99278.44;;;5.28;63.75
19108;BME280;9686;48.832;9.126;2023-01-29T09:58:41;99271.31;;;5.21;65.59
19108;BME280;9686;48.832;9.126;2023-01-29T10:04:17;99252.94;;;5.40;65.36
19108;BME280;9686;48.832;9.126;2023-01-29T10:12:41;99250.84;;;5.84;61.18
19108;BME280;9686;48.832;9.126;2023-01-29T10:15:22;99239.81;;;5.61;60.53
19108;BME280;9686;48.832;9.126;2023-01-29T10:23:35;99245.03;;;5.91;62.64
19108;BME280;9686;48.832;9.126;2023-01-29T10:26:02;99242.50;;;5.93;64.30
19108;BME280;9686;48.832;9.126;2023-01-29T10:28:40;99256.06;;;5.85;61.69
19108;BME280;9686;48.832;9.126;2023-01-29T10:31:25;99248.66;;;5.98;63.10
19108;BME280;9686;48.832;9.126;2023-01-29T10:33:56;99250.38;;;5.97;63.70
19108;BME280;9686;48.832;9.126;2023-01-29T10:36:42;99244.66;;;6.07;63.20
19108;BME280;9686;48.832;9.126;2023-01-29T10:39:14;99244.34;;;5.97;61.59
19108;BME280;9686;48.832;9.126;2023-01-29T10:50:30;99258.97;;;5.96;63.19
19108;BME280;9686;48.832;9.126;2023-01-29T10:58:33;99253.09;;;5.45;62.21
19108;BME280;9686;48.832;9.126;2023-01-29T11:01:00;99251.25;;;5.41;62.06
19108;BME280;9686;48.832;9.126;2023-01-29T11:03:28;99248.09;;;5.78;61.58
19108;BME280;9686;48.832;9.126;2023-01-29T11:06:18;99251.03;;;5.90;61.35
19108;BME280;9686;48.832;9.126;2023-01-29T11:11:53;99252.38;;;5.77;60.44
19108;BME280;9686;48.832;9.126;2023-01-29T11:14:24;99250.66;;;5.78;62.01
19108;BME280;9686;48.832;9.126;2023-01-29T11:16:51;99246.94;;;5.70;61.17
19108;BME280;9686;48.832;9.126;2023-01-29T11:19:16;99248.38;;;5.88;61.71
19108;BME280;9686;48.832;9.126;2023-01-29T11:21:59;99231.44;;;5.70;62.21
19108;BME280;9686;48.832;9.126;2023-01-29T11:24:26;99229.09;;;5.77;61.88
19108;BME280;9686;48.832;9.126;2023-01-29T11:26:54;99214.13;;;5.67;62.21
19108;BME280;9686;48.832;9.126;2023-01-29T11:29:36;99210.31;;;5.84;63.13
19108;BME280;9686;48.832;9.126;2023-01-29T11:32:06;99193.91;;;5.84;62.49
19108;BME280;9686;48.832;9.126;2023-01-29T11:34:32;99206.78;;;5.52;61.40
19108;BME280;9686;48.832;9.126;2023-01-29T11:37:01;99199.41;;;5.95;62.51
19108;BME280;9686;48.832;9.126;2023-01-29T11:39:27;99205.78;;;5.76;60.69
19108;BME280;9686;48.832;9.126;2023-01-29T11:44:31;99194.03;;;5.88;62.05
19108;BME280;9686;48.832;9.126;2023-01-29T11:47:18;99204.16;;;5.51;61.47
19108;BME280;9686;48.832;9.126;2023-01-29T11:49:52;99208.59;;;5.85;60.58
19108;BME280;9686;48.832;9.126;2023-01-29T11:52:20;99201.16;;;5.96;61.47
19108;BME280;9686;48.832;9.126;2023-01-29T11:54:59;99194.69;;;6.10;60.53
19108;BME280;9686;48.832;9.126;2023-01-29T11:57:33;99196.69;;;5.32;62.71
19108;BME280;9686;48.832;9.126;2023-01-29T12:02:44;99180.63;;;5.72;63.57
19108;BME280;9686;48.832;9.126;2023-01-29T12:05:15;99173.91;;;5.77;61.54
19108;BME280;9686;48.832;9.126;2023-01-29T12:07:43;99168.69;;;6.05;63.23
19108;BME280;9686;48.832;9.126;2023-01-29T12:10:39;99159.06;;;6.33;62.48
19108;BME280;9686;48.832;9.126;2023-01-29T12:15:34;99147.56;;;6.56;59.46
19108;BME280;9686;48.832;9.126;2023-01-29T12:18:04;99136.56;;;7.02;58.05
19108;BME280;9686;48.832;9.126;2023-01-29T12:20:40;99133.66;;;7.26;56.59
19108;BME280;9686;48.832;9.126;2023-01-29T12:23:18;99127.31;;;7.54;56.47
19108;BME280;9686;48.832;9.126;2023-01-29T12:28:42;99111.44;;;7.37;56.09
19108;BME280;9686;48.832;9.126;2023-01-29T12:34:11;99100.41;;;7.07;57.22
19108;BME280;9686;48.832;9.126;2023-01-29T12:39:18;99098.31;;;6.91;56.70
19108;BME280;9686;48.832;9.126;2023-01-29T12:42:07;99087.41;;;7.05;56.54
19108;BME280;9686;48.832;9.126;2023-01-29T12:44:41;99077.03;;;7.05;56.46
19108;BME280;9686;48.832;9.126;2023-01-29T12:47:17;99068.69;;;7.20;56.36
19108;BME280;9686;48.832;9.126;2023-01-29T12:49:47;99071.50;;;7.29;56.96
19108;BME280;9686;48.832;9.126;2023-01-29T12:52:18;99078.31;;;7.26;56.37
19108;BME280;9686;48.832;9.126;2023-01-29T12:54:54;99075.94;;;7.35;56.61
19108;BME280;9686;48.832;9.126;2023-01-29T12:57:56;99064.06;;;7.05;56.62
19108;BME280;9686;48.832;9.126;2023-01-29T13:00:25;99064.28;;;7.16;56.09
19108;BME280;9686;48.832;9.126;2023-01-29T13:02:59;99059.50;;;7.34;57.81
19108;BME280;9686;48.832;9.126;2023-01-29T13:05:30;99057.75;;;7.33;57.27
19108;BME280;9686;48.832;9.126;2023-01-29T13:08:08;99048.19;;;7.31;57.20
19108;BME280;9686;48.832;9.126;2023-01-29T13:10:39;99041.44;;;7.39;56.09
19108;BME280;9686;48.832;9.126;2023-01-29T13:16:29;99042.00;;;7.68;55.33
19108;BME280;9686;48.832;9.126;2023-01-29T13:21:44;99043.00;;;7.31;56.02
19108;BME280;9686;48.832;9.126;2023-01-29T13:24:20;99039.63;;;7.35;55.78
19108;BME280;9686;48.832;9.126;2023-01-29T13:26:47;99032.94;;;7.48;55.21
19108;BME280;9686;48.832;9.126;2023-01-29T13:29:21;99033.69;;;7.40;55.02
19108;BME280;9686;48.832;9.126;2023-01-29T13:31:48;99036.13;;;7.33;55.46
19108;BME280;9686;48.832;9.126;2023-01-29T13:36:47;99052.94;;;6.72;nan
19108;BME280;9686;48.832;9.126;2023-01-29T13:39:33;99052.91;;;6.70;56.45
19108;BME280;9686;48.832;9.126;2023-01-29T13:42:14;99042.63;;;6.73;58.01
19108;BME280;9686;48.832;9.126;2023-01-29T13:44:40;99036.84;;;6.85;56.46
19108;BME280;9686;48.832;9.126;2023-01-29T13:47:08;99045.75;;;6.98;55.66
19108;BME280;9686;48.832;9.126;2023-01-29T13:49:42;99051.22;;;6.72;56.05
19108;BME280;9686;48.832;9.126;2023-01-29T13:54:57;99052.63;;;6.96;56.67
19108;BME280;9686;48.832;9.126;2023-01-29T14:03:31;99052.94;;;6.72;58.67
19108;BME280;9686;48.832;9.126;2023-01-29T14:05:40;99049.94;;;6.91;56.81
19108;BME280;9686;48.832;9.126;2023-01-29T14:10:37;99042.78;;;6.79;58.41
19108;BME280;9686;48.832;9.126;2023-01-29T14:15:30;99037.47;;;6.75;56.70
19108;BME280;9686;48.832;9.126;2023-01-29T14:20:35;99035.41;;;6.60;58.76
19108;BME280;9686;48.832;9.126;2023-01-29T14:23:01;99041.03;;;6.42;58.84
19108;BME280;9686;48.832;9.126;2023-01-29T14:25:33;99036.00;;;6.48;59.06
19108;BME280;9686;48.832;9.126;2023-01-29T14:28:02;99039.03;;;6.68;59.91
19108;BME280;9686;48.832;9.126;2023-01-29T14:30:33;99038.78;;;6.56;60.26
19108;BME280;9686;48.832;9.126;2023-01-29T14:32:59;99035.47;;;6.26;61.41
19108;BME280;9686;48.832;9.126;2023-01-29T14:35:28;99030.09;;;6.18;60.56
19108;BME280;9686;48.832;9.126;2023-01-29T14:37:59;99027.69;;;6.26;61.33
19108;BME280;9686;48.832;9.126;2023-01-29T14:40:28;99026.81;;;6.25;60.86
19108;BME280;9686;48.832;9.126;2023-01-29T14:43:03;99023.66;;;6.02;61.14
19108;BME280;9686;48.832;9.126;2023-01-29T14:45:36;99037.69;;;5.79;61.92
19108;BME280;9686;48.832;9.126;2023-01-29T14:53:17;99021.78;;;5.97;63.43
19108;BME280;9686;48.832;9.126;2023-01-29T14:55:55;99019.75;;;5.85;63.15
19108;BME280;9686;48.832;9.126;2023-01-29T14:58:34;99014.19;;;6.03;62.89
19108;BME280;9686;48.832;9.126;2023-01-29T15:01:04;99014.84;;;5.96;64.39
19108;BME280;9686;48.832;9.126;2023-01-29T15:03:39;99023.66;;;6.02;63.61
19108;BME280;9686;48.832;9.126;2023-01-29T15:06:09;99024.03;;;6.17;62.71
19108;BME280;9686;48.832;9.126;2023-01-29T15:08:42;99028.56;;;5.92;63.29
19108;BME280;9686;48.832;9.126;2023-01-29T15:11:31;99034.44;;;5.86;63.90
19108;BME280;9686;48.832;9.126;2023-01-29T15:14:21;99038.13;;;5.63;66.63
19108;BME280;9686;48.832;9.126;2023-01-29T15:19:40;99040.22;;;5.76;65.90
19108;BME280;9686;48.832;9.126;2023-01-29T15:22:26;99039.06;;;5.35;68.89
19108;BME280;9686;48.832;9.126;2023-01-29T15:25:12;99039.16;;;5.38;69.98
19108;BME280;9686;48.832;9.126;2023-01-29T15:27:42;99030.06;;;5.52;68.75
19108;BME280;9686;48.832;9.126;2023-01-29T15:30:21;99030.59;;;5.72;68.76
19108;BME280;9686;48.832;9.126;2023-01-29T15:32:48;99027.38;;;5.80;67.85
19108;BME280;9686;48.832;9.126;2023-01-29T15:38:21;99028.28;;;5.49;68.69
19108;BME280;9686;48.832;9.126;2023-01-29T15:43:44;99029.78;;;5.41;71.37